sensor_id;sensor_type;location;lat;lon;timestamp;pressure;altitude;pressure_sealevel;temperature;humidity
72096;BME280;59968;51.084;16.748;2023-03-17T19:26:50;100203.54;;;9.78;39.80
72096;BME280;59968;51.084;16.748;2023-03-17T19:29:20;100198.00;;;9.96;39.31
72096;BME280;59968;51.084;16.748;2023-03-17T19:31:49;100194.42;;;9.97;39.01
72096;BME280;59968;51.084;16.748;2023-03-17T19:34:19;100192.71;;;9.98;38.92
72096;BME280;59968;51.084;16.748;2023-03-17T19:36:49;100194.21;;;10.00;38.74
72096;BME280;59968;51.084;16.748;2023-03-17T19:39:19;100194.83;;;10.04;38.62
72096;BME280;59968;51.084;16.748;2023-03-17T19:41:49;100197.42;;;10.05;39.18
72096;BME280;59968;51.084;16.748;2023-03-17T19:44:24;100200.58;;;10.05;40.34
72096;BME280;59968;51.084;16.748;2023-03-17T19:46:55;100200.94;;;10.02;40.97
72096;BME280;59968;51.084;16.748;2023-03-17T19:49:25;100196.45;;;9.96;41.35
72096;BME280;59968;51.084;16.748;2023-03-17T19:51:54;100195.98;;;9.90;41.64
72096;BME280;59968;51.084;16.748;2023-03-17T19:54:24;100195.35;;;9.84;41.81
72096;BME280;59968;51.084;16.748;2023-03-17T19:56:53;100201.11;;;9.78;41.88
72096;BME280;59968;51.084;16.748;2023-03-17T19:59:26;100199.68;;;9.74;41.82
72096;BME280;59968;51.084;16.748;2023-03-17T20:01:56;100202.78;;;9.68;41.83
72096;BME280;59968;51.084;16.748;2023-03-17T20:04:27;100197.05;;;9.64;41.88
72096;BME280;59968;51.084;16.748;2023-03-17T20:06:58;100190.16;;;9.59;41.78
72096;BME280;59968;51.084;16.748;2023-03-17T20:09:28;100190.30;;;9.55;41.79
72096;BME280;59968;51.084;16.748;2023-03-17T20:11:59;100180.77;;;9.49;41.77
72096;BME280;59968;51.084;16.748;2023-03-17T20:14:31;100175.46;;;9.45;41.67
72096;BME280;59968;51.084;16.748;2023-03-17T20:17:02;100172.52;;;9.41;41.69
72096;BME280;59968;51.084;16.748;2023-03-17T20:19:33;100166.64;;;9.35;41.63
72096;BME280;59968;51.084;16.748;2023-03-17T20:22:05;100169.89;;;9.33;41.64
72096;BME280;59968;51.084;16.748;2023-03-17T20:24:35;100168.77;;;9.29;41.81
72096;BME280;59968;51.084;16.748;2023-03-17T20:27:07;100169.13;;;9.22;41.78
72096;BME280;59968;51.084;16.748;2023-03-17T20:29:42;100173.55;;;9.14;41.74
72096;BME280;59968;51.084;16.748;2023-03-17T20:32:14;100174.46;;;9.06;41.85
72096;BME280;59968;51.084;16.748;2023-03-17T20:34:47;100174.23;;;9.00;41.88
72096;BME280;59968;51.084;16.748;2023-03-17T20:37:18;100171.75;;;8.93;41.95
72096;BME280;59968;51.084;16.748;2023-03-17T20:39:50;100175.19;;;8.87;41.83
72096;BME280;59968;51.084;16.748;2023-03-17T20:42:24;100177.64;;;8.83;42.04
72096;BME280;59968;51.084;16.748;2023-03-17T20:44:55;100175.42;;;8.78;42.09
72096;BME280;59968;51.084;16.748;2023-03-17T20:47:26;100172.55;;;8.73;42.03
72096;BME280;59968;51.084;16.748;2023-03-17T20:50:00;100159.36;;;8.62;41.92
72096;BME280;59968;51.084;16.748;2023-03-17T20:52:35;100173.77;;;8.69;42.00
72096;BME280;59968;51.084;16.748;2023-03-17T20:55:09;100171.33;;;8.68;42.08
72096;BME280;59968;51.084;16.748;2023-03-17T20:57:43;100174.19;;;8.65;42.08
72096;BME280;59968;51.084;16.748;2023-03-17T21:00:19;100169.39;;;8.62;42.03
72096;BME280;59968;51.084;16.748;2023-03-17T21:02:51;100170.65;;;8.62;41.97
72096;BME280;59968;51.084;16.748;2023-03-17T21:05:24;100169.65;;;8.61;42.18
72096;BME280;59968;51.084;16.748;2023-03-17T21:07:54;100167.07;;;8.59;42.18
72096;BME280;59968;51.084;16.748;2023-03-17T21:10:24;100170.17;;;8.56;42.07
72096;BME280;59968;51.084;16.748;2023-03-17T21:12:52;100164.32;;;8.53;42.02
72096;BME280;59968;51.084;16.748;2023-03-17T21:15:23;100166.32;;;8.50;42.07
72096;BME280;59968;51.084;16.748;2023-03-17T21:17:52;100166.55;;;8.48;42.00
72096;BME280;59968;51.084;16.748;2023-03-17T21:20:21;100163.55;;;8.45;42.06
72096;BME280;59968;51.084;16.748;2023-03-17T21:22:52;100150.54;;;8.42;41.99
72096;BME280;59968;51.084;16.748;2023-03-17T21:25:21;100154.96;;;8.42;41.99
72096;BME280;59968;51.084;16.748;2023-03-17T21:27:50;100159.86;;;8.40;42.00
72096;BME280;59968;51.084;16.748;2023-03-17T21:30:20;100160.16;;;8.38;42.03
72096;BME280;59968;51.084;16.748;2023-03-17T21:32:49;100150.85;;;8.35;42.04
72096;BME280;59968;51.084;16.748;2023-03-17T21:35:18;100146.05;;;8.32;42.08
72096;BME280;59968;51.084;16.748;2023-03-17T21:37:47;100135.27;;;8.22;42.14
72096;BME280;59968;51.084;16.748;2023-03-17T21:40:17;100143.83;;;8.24;41.98
72096;BME280;59968;51.084;16.748;2023-03-17T21:42:47;100140.30;;;8.22;41.98
72096;BME280;59968;51.084;16.748;2023-03-17T21:45:17;100136.42;;;8.21;42.18
72096;BME280;59968;51.084;16.748;2023-03-17T21:47:48;100133.29;;;8.18;42.46
72096;BME280;59968;51.084;16.748;2023-03-17T21:50:18;100121.23;;;8.14;42.61
72096;BME280;59968;51.084;16.748;2023-03-17T21:52:47;100125.05;;;8.08;42.80
72096;BME280;59968;51.084;16.748;2023-03-17T21:55:19;100123.74;;;8.02;42.91
72096;BME280;59968;51.084;16.748;2023-03-17T21:57:49;100126.03;;;7.97;43.01
72096;BME280;59968;51.084;16.748;2023-03-17T22:00:18;100121.46;;;7.95;43.10
72096;BME280;59968;51.084;16.748;2023-03-17T22:02:50;100120.80;;;7.93;43.17
72096;BME280;59968;51.084;16.748;2023-03-17T22:05:20;100118.94;;;7.91;43.29
72096;BME280;59968;51.084;16.748;2023-03-17T22:07:50;100118.17;;;7.91;43.40
72096;BME280;59968;51.084;16.748;2023-03-17T22:10:19;100118.66;;;7.89;43.39
72096;BME280;59968;51.084;16.748;2023-03-17T22:12:49;100113.89;;;7.89;43.25
72096;BME280;59968;51.084;16.748;2023-03-17T22:15:19;100110.20;;;7.88;43.22
72096;BME280;59968;51.084;16.748;2023-03-17T22:17:49;100109.77;;;7.87;43.12
72096;BME280;59968;51.084;16.748;2023-03-17T22:20:19;100111.22;;;7.87;43.27
72096;BME280;59968;51.084;16.748;2023-03-17T22:22:48;100111.48;;;7.84;43.33
72096;BME280;59968;51.084;16.748;2023-03-17T22:25:18;100118.08;;;7.82;43.53
72096;BME280;59968;51.084;16.748;2023-03-17T22:27:50;100121.83;;;7.79;43.63
72096;BME280;59968;51.084;16.748;2023-03-17T22:30:19;100119.15;;;7.76;43.60
72096;BME280;59968;51.084;16.748;2023-03-17T22:32:47;100114.27;;;7.72;43.59
72096;BME280;59968;51.084;16.748;2023-03-17T22:35:17;100112.39;;;7.69;43.68
72096;BME280;59968;51.084;16.748;2023-03-17T22:37:48;100109.26;;;7.66;43.72
72096;BME280;59968;51.084;16.748;2023-03-17T22:40:17;100106.77;;;7.64;43.79
72096;BME280;59968;51.084;16.748;2023-03-17T22:42:46;100105.23;;;7.62;43.75
72096;BME280;59968;51.084;16.748;2023-03-17T22:45:15;100106.55;;;7.58;43.86
72096;BME280;59968;51.084;16.748;2023-03-17T22:47:44;100107.39;;;7.54;43.89
72096;BME280;59968;51.084;16.748;2023-03-17T22:50:13;100104.08;;;7.50;43.96
72096;BME280;59968;51.084;16.748;2023-03-17T22:52:42;100106.06;;;7.46;44.37
72096;BME280;59968;51.084;16.748;2023-03-17T22:55:11;100106.48;;;7.43;44.59
72096;BME280;59968;51.084;16.748;2023-03-17T22:57:40;100107.35;;;7.37;44.67
72096;BME280;59968;51.084;16.748;2023-03-17T23:00:12;100103.55;;;7.31;44.85
72096;BME280;59968;51.084;16.748;2023-03-17T23:02:43;100103.70;;;7.26;44.92
72096;BME280;59968;51.084;16.748;2023-03-17T23:05:13;100097.15;;;7.24;45.12
72096;BME280;59968;51.084;16.748;2023-03-17T23:07:43;100098.63;;;7.19;45.35
72096;BME280;59968;51.084;16.748;2023-03-17T23:10:20;100093.73;;;7.14;45.51
72096;BME280;59968;51.084;16.748;2023-03-17T23:12:52;100099.55;;;7.08;45.65
72096;BME280;59968;51.084;16.748;2023-03-17T23:15:21;100094.92;;;7.03;45.87
72096;BME280;59968;51.084;16.748;2023-03-17T23:17:50;100097.41;;;6.98;46.16
72096;BME280;59968;51.084;16.748;2023-03-17T23:20:19;100096.45;;;6.93;46.34
72096;BME280;59968;51.084;16.748;2023-03-17T23:22:47;100097.45;;;6.87;46.41
72096;BME280;59968;51.084;16.748;2023-03-17T23:25:17;100097.81;;;6.84;46.32
72096;BME280;59968;51.084;16.748;2023-03-17T23:27:46;100095.92;;;6.78;46.29
72096;BME280;59968;51.084;16.748;2023-03-17T23:30:15;100097.25;;;6.75;46.04
72096;BME280;59968;51.084;16.748;2023-03-17T23:32:45;100094.00;;;6.73;45.90
72096;BME280;59968;51.084;16.748;2023-03-17T23:35:14;100089.89;;;6.74;45.85
72096;BME280;59968;51.084;16.748;2023-03-17T23:37:42;100087.34;;;6.73;45.88
72096;BME280;59968;51.084;16.748;2023-03-17T23:40:12;100087.38;;;6.73;45.73
72096;BME280;59968;51.084;16.748;2023-03-17T23:42:45;100085.64;;;6.73;45.73
72096;BME280;59968;51.084;16.748;2023-03-17T23:45:17;100081.67;;;6.73;45.92
72096;BME280;59968;51.084;16.748;2023-03-17T23:47:46;100082.80;;;6.74;45.87
72096;BME280;59968;51.084;16.748;2023-03-17T23:50:14;100084.54;;;6.74;45.86
72096;BME280;59968;51.084;16.748;2023-03-17T23:52:43;100085.05;;;6.74;45.83
72096;BME280;59968;51.084;16.748;2023-03-17T23:55:12;100086.47;;;6.73;46.03
72096;BME280;59968;51.084;16.748;2023-03-17T23:57:41;100082.45;;;6.72;45.87
